sensor_id;sensor_type;location;lat;lon;timestamp;pressure;altitude;pressure_sealevel;temperature;humidity
43683;BME280;29285;52.128;21.060;2023-04-23T00:00:47;100104.97;;;13.04;56.86
43683;BME280;29285;52.128;21.060;2023-04-23T00:06:08;100103.13;;;12.96;57.16
43683;BME280;29285;52.128;21.060;2023-04-23T00:11:11;100104.05;;;12.89;57.46
43683;BME280;29285;52.128;21.060;2023-04-23T00:16:12;100108.16;;;12.79;57.70
43683;BME280;29285;52.128;21.060;2023-04-23T00:21:13;100101.65;;;12.75;58.21
43683;BME280;29285;52.128;21.060;2023-04-23T00:26:14;100098.24;;;12.73;58.53
43683;BME280;29285;52.128;21.060;2023-04-23T00:31:18;100095.80;;;12.66;58.80
43683;BME280;29285;52.128;21.060;2023-04-23T00:36:19;100091.35;;;12.64;59.20
43683;BME280;29285;52.128;21.060;2023-04-23T00:41:20;100086.34;;;12.63;59.55
43683;BME280;29285;52.128;21.060;2023-04-23T00:46:24;100087.91;;;12.56;59.87
43683;BME280;29285;52.128;21.060;2023-04-23T00:51:27;100089.88;;;12.54;60.25
43683;BME280;29285;52.128;21.060;2023-04-23T00:56:29;100085.64;;;12.50;60.55
43683;BME280;29285;52.128;21.060;2023-04-23T01:01:30;100088.75;;;12.45;60.86
43683;BME280;29285;52.128;21.060;2023-04-23T01:06:33;100091.91;;;12.37;61.07
43683;BME280;29285;52.128;21.060;2023-04-23T01:11:38;100094.45;;;12.34;61.38
43683;BME280;29285;52.128;21.060;2023-04-23T01:16:40;100090.13;;;12.33;61.84
43683;BME280;29285;52.128;21.060;2023-04-23T01:21:41;100092.48;;;12.29;62.11
43683;BME280;29285;52.128;21.060;2023-04-23T01:26:42;100094.31;;;12.25;62.59
43683;BME280;29285;52.128;21.060;2023-04-23T01:31:44;100092.75;;;12.19;62.69
43683;BME280;29285;52.128;21.060;2023-04-23T01:36:46;100089.11;;;12.12;62.81
43683;BME280;29285;52.128;21.060;2023-04-23T01:41:48;100090.44;;;12.07;63.13
43683;BME280;29285;52.128;21.060;2023-04-23T01:46:50;100092.83;;;12.01;63.43
43683;BME280;29285;52.128;21.060;2023-04-23T01:51:51;100090.98;;;12.34;64.99
43683;BME280;29285;52.128;21.060;2023-04-23T01:56:52;100090.89;;;12.37;66.31
43683;BME280;29285;52.128;21.060;2023-04-23T02:01:55;100090.18;;;12.24;66.13
43683;BME280;29285;52.128;21.060;2023-04-23T02:06:57;100087.88;;;12.12;66.07
43683;BME280;29285;52.128;21.060;2023-04-23T02:11:58;100093.68;;;12.02;66.16
43683;BME280;29285;52.128;21.060;2023-04-23T02:16:59;100094.98;;;11.85;66.24
43683;BME280;29285;52.128;21.060;2023-04-23T02:22:00;100092.89;;;11.77;66.49
43683;BME280;29285;52.128;21.060;2023-04-23T02:27:02;100090.92;;;11.72;66.87
43683;BME280;29285;52.128;21.060;2023-04-23T02:32:03;100088.73;;;11.63;67.19
43683;BME280;29285;52.128;21.060;2023-04-23T02:37:04;100089.04;;;11.58;67.50
43683;BME280;29285;52.128;21.060;2023-04-23T02:42:06;100088.41;;;11.55;67.83
43683;BME280;29285;52.128;21.060;2023-04-23T02:47:07;100088.27;;;11.46;68.28
43683;BME280;29285;52.128;21.060;2023-04-23T02:52:08;100083.44;;;11.37;68.43
43683;BME280;29285;52.128;21.060;2023-04-23T02:57:10;100083.73;;;11.31;68.55
43683;BME280;29285;52.128;21.060;2023-04-23T03:02:14;100085.54;;;11.29;69.08
43683;BME280;29285;52.128;21.060;2023-04-23T03:07:15;100088.76;;;11.24;69.37
43683;BME280;29285;52.128;21.060;2023-04-23T03:12:17;100084.80;;;11.23;69.98
43683;BME280;29285;52.128;21.060;2023-04-23T03:17:18;100082.73;;;11.22;70.35
43683;BME280;29285;52.128;21.060;2023-04-23T03:22:19;100086.48;;;11.18;70.57
43683;BME280;29285;52.128;21.060;2023-04-23T03:27:21;100082.59;;;11.13;70.85
43683;BME280;29285;52.128;21.060;2023-04-23T03:32:22;100080.86;;;11.12;71.12
43683;BME280;29285;52.128;21.060;2023-04-23T03:37:22;100078.96;;;11.12;71.49
43683;BME280;29285;52.128;21.060;2023-04-23T03:42:24;100080.39;;;11.11;71.99
43683;BME280;29285;52.128;21.060;2023-04-23T03:47:25;100077.70;;;11.07;72.27
43683;BME280;29285;52.128;21.060;2023-04-23T03:52:26;100077.96;;;11.11;72.76
43683;BME280;29285;52.128;21.060;2023-04-23T03:57:28;100074.94;;;11.13;73.18
43683;BME280;29285;52.128;21.060;2023-04-23T04:02:29;100077.48;;;11.17;73.13
43683;BME280;29285;52.128;21.060;2023-04-23T04:07:31;100078.59;;;11.22;73.58
43683;BME280;29285;52.128;21.060;2023-04-23T04:12:33;100081.34;;;11.30;74.05
43683;BME280;29285;52.128;21.060;2023-04-23T04:17:34;100084.20;;;11.33;74.47
43683;BME280;29285;52.128;21.060;2023-04-23T04:22:36;100087.70;;;11.40;74.72
43683;BME280;29285;52.128;21.060;2023-04-23T04:27:37;100084.13;;;11.44;74.87
43683;BME280;29285;52.128;21.060;2023-04-23T04:32:39;100083.26;;;11.52;75.20
43683;BME280;29285;52.128;21.060;2023-04-23T04:37:41;100079.67;;;11.64;75.64
43683;BME280;29285;52.128;21.060;2023-04-23T04:42:44;100077.45;;;11.70;75.65
43683;BME280;29285;52.128;21.060;2023-04-23T04:47:46;100083.30;;;11.79;76.04
43683;BME280;29285;52.128;21.060;2023-04-23T04:52:47;100080.71;;;11.85;76.30
43683;BME280;29285;52.128;21.060;2023-04-23T04:57:48;100080.63;;;11.96;76.38
43683;BME280;29285;52.128;21.060;2023-04-23T05:02:50;100080.19;;;12.07;76.74
43683;BME280;29285;52.128;21.060;2023-04-23T05:07:52;100077.52;;;12.16;76.98
43683;BME280;29285;52.128;21.060;2023-04-23T05:12:59;100077.22;;;12.27;77.18
43683;BME280;29285;52.128;21.060;2023-04-23T05:18:03;100080.55;;;12.39;77.30
43683;BME280;29285;52.128;21.060;2023-04-23T05:23:04;100083.43;;;12.55;77.66
43683;BME280;29285;52.128;21.060;2023-04-23T05:28:05;100081.89;;;12.66;77.82
43683;BME280;29285;52.128;21.060;2023-04-23T05:33:08;100079.19;;;12.82;78.22
43683;BME280;29285;52.128;21.060;2023-04-23T05:38:09;100080.55;;;13.00;78.47
43683;BME280;29285;52.128;21.060;2023-04-23T05:43:11;100076.92;;;13.17;78.85
43683;BME280;29285;52.128;21.060;2023-04-23T05:48:12;100074.79;;;13.35;78.98
43683;BME280;29285;52.128;21.060;2023-04-23T05:53:14;100073.52;;;13.54;79.13
43683;BME280;29285;52.128;21.060;2023-04-23T05:58:15;100073.36;;;13.75;79.49
43683;BME280;29285;52.128;21.060;2023-04-23T06:03:19;100069.77;;;13.94;79.75
43683;BME280;29285;52.128;21.060;2023-04-23T06:08:20;100065.16;;;14.11;79.73
43683;BME280;29285;52.128;21.060;2023-04-23T06:13:21;100061.61;;;14.28;79.62
43683;BME280;29285;52.128;21.060;2023-04-23T06:18:23;100059.65;;;14.44;79.80
43683;BME280;29285;52.128;21.060;2023-04-23T06:23:24;100065.10;;;14.62;79.78
43683;BME280;29285;52.128;21.060;2023-04-23T06:28:25;100067.38;;;14.81;79.78
43683;BME280;29285;52.128;21.060;2023-04-23T06:33:26;100064.17;;;15.02;79.85
43683;BME280;29285;52.128;21.060;2023-04-23T06:38:28;100063.66;;;15.19;79.78
43683;BME280;29285;52.128;21.060;2023-04-23T06:43:29;100060.20;;;15.36;79.53
43683;BME280;29285;52.128;21.060;2023-04-23T06:48:31;100060.34;;;15.54;79.41
43683;BME280;29285;52.128;21.060;2023-04-23T06:53:32;100055.08;;;15.67;79.28
43683;BME280;29285;52.128;21.060;2023-04-23T06:58:33;100054.88;;;15.81;78.88
43683;BME280;29285;52.128;21.060;2023-04-23T07:03:34;100049.40;;;15.95;78.60
43683;BME280;29285;52.128;21.060;2023-04-23T07:14:33;100055.39;;;16.31;77.97
43683;BME280;29285;52.128;21.060;2023-04-23T07:19:38;100050.96;;;16.56;77.82
43683;BME280;29285;52.128;21.060;2023-04-23T07:24:40;100049.18;;;16.91;78.19
43683;BME280;29285;52.128;21.060;2023-04-23T07:29:44;100044.20;;;17.27;78.62
43683;BME280;29285;52.128;21.060;2023-04-23T07:34:54;100037.55;;;17.59;78.73
43683;BME280;29285;52.128;21.060;2023-04-23T07:39:57;100037.50;;;17.38;76.59
43683;BME280;29285;52.128;21.060;2023-04-23T07:44:58;100029.97;;;17.34;74.87
43683;BME280;29285;52.128;21.060;2023-04-23T07:50:00;100027.15;;;17.74;75.74
43683;BME280;29285;52.128;21.060;2023-04-23T07:55:45;100027.95;;;17.82;74.68
43683;BME280;29285;52.128;21.060;2023-04-23T08:00:46;100026.92;;;17.82;73.09
43683;BME280;29285;52.128;21.060;2023-04-23T08:05:47;100023.52;;;17.97;72.27
43683;BME280;29285;52.128;21.060;2023-04-23T08:10:51;100023.18;;;18.38;72.78
43683;BME280;29285;52.128;21.060;2023-04-23T08:16:33;100017.58;;;18.64;72.34
43683;BME280;29285;52.128;21.060;2023-04-23T08:21:34;100013.63;;;18.84;71.86
43683;BME280;29285;52.128;21.060;2023-04-23T08:26:36;100013.11;;;18.94;70.88
43683;BME280;29285;52.128;21.060;2023-04-23T08:31:37;100011.68;;;19.01;69.85
43683;BME280;29285;52.128;21.060;2023-04-23T08:36:38;100007.27;;;18.88;67.99
43683;BME280;29285;52.128;21.060;2023-04-23T08:41:40;100002.88;;;19.01;67.21
43683;BME280;29285;52.128;21.060;2023-04-23T08:46:43;100004.27;;;19.11;66.59
43683;BME280;29285;52.128;21.060;2023-04-23T08:51:51;99999.36;;;19.17;65.24
43683;BME280;29285;52.128;21.060;2023-04-23T08:56:56;99992.42;;;19.34;64.81
43683;BME280;29285;52.128;21.060;2023-04-23T09:02:01;99984.68;;;19.28;63.23
43683;BME280;29285;52.128;21.060;2023-04-23T09:07:07;99982.23;;;19.27;62.26
43683;BME280;29285;52.128;21.060;2023-04-23T09:12:11;99978.30;;;19.41;61.88
43683;BME280;29285;52.128;21.060;2023-04-23T09:17:12;99977.52;;;19.60;61.78
43683;BME280;29285;52.128;21.060;2023-04-23T09:22:13;99969.48;;;19.80;61.72
43683;BME280;29285;52.128;21.060;2023-04-23T09:27:18;99967.66;;;19.87;60.96
43683;BME280;29285;52.128;21.060;2023-04-23T09:32:32;99968.15;;;19.85;59.82
43683;BME280;29285;52.128;21.060;2023-04-23T09:37:34;99960.23;;;19.82;58.83
43683;BME280;29285;52.128;21.060;2023-04-23T09:42:35;99963.73;;;19.93;58.60
43683;BME280;29285;52.128;21.060;2023-04-23T09:47:38;99963.70;;;19.68;56.39
43683;BME280;29285;52.128;21.060;2023-04-23T09:52:40;99952.52;;;19.52;54.83
43683;BME280;29285;52.128;21.060;2023-04-23T09:57:42;99941.69;;;19.68;54.98
43683;BME280;29285;52.128;21.060;2023-04-23T10:02:50;99937.92;;;19.93;55.46
43683;BME280;29285;52.128;21.060;2023-04-23T10:07:52;99932.38;;;20.15;55.65
43683;BME280;29285;52.128;21.060;2023-04-23T10:12:53;99924.64;;;20.20;55.34
43683;BME280;29285;52.128;21.060;2023-04-23T10:17:56;99922.64;;;20.21;54.74
43683;BME280;29285;52.128;21.060;2023-04-23T10:22:59;99915.61;;;20.32;54.56
43683;BME280;29285;52.128;21.060;2023-04-23T10:28:03;99911.48;;;20.28;53.38
43683;BME280;29285;52.128;21.060;2023-04-23T10:33:07;99911.08;;;20.15;51.66
43683;BME280;29285;52.128;21.060;2023-04-23T10:38:09;99904.80;;;19.90;48.98
43683;BME280;29285;52.128;21.060;2023-04-23T10:43:11;99903.72;;;20.00;48.25
43683;BME280;29285;52.128;21.060;2023-04-23T10:48:13;99890.48;;;20.51;49.23
43683;BME280;29285;52.128;21.060;2023-04-23T10:53:19;99884.09;;;20.84;49.70
43683;BME280;29285;52.128;21.060;2023-04-23T10:58:47;99870.21;;;21.16;49.72
43683;BME280;29285;52.128;21.060;2023-04-23T11:03:51;99871.98;;;21.45;49.55
43683;BME280;29285;52.128;21.060;2023-04-23T11:08:53;99870.08;;;21.39;48.15
43683;BME280;29285;52.128;21.060;2023-04-23T11:13:54;99861.67;;;21.35;46.85
43683;BME280;29285;52.128;21.060;2023-04-23T11:24:06;99857.96;;;22.02;47.58
43683;BME280;29285;52.128;21.060;2023-04-23T11:29:08;99855.09;;;21.95;46.07
43683;BME280;29285;52.128;21.060;2023-04-23T11:34:12;99846.80;;;21.92;44.80
43683;BME280;29285;52.128;21.060;2023-04-23T11:39:16;99843.06;;;22.20;44.89
43683;BME280;29285;52.128;21.060;2023-04-23T11:44:19;99843.75;;;22.18;43.53
43683;BME280;29285;52.128;21.060;2023-04-23T11:49:21;99831.23;;;22.08;42.18
43683;BME280;29285;52.128;21.060;2023-04-23T11:54:24;99832.61;;;22.30;41.87
43683;BME280;29285;52.128;21.060;2023-04-23T11:59:27;99822.89;;;22.32;40.81
43683;BME280;29285;52.128;21.060;2023-04-23T12:04:30;99826.77;;;22.28;39.43
43683;BME280;29285;52.128;21.060;2023-04-23T12:09:31;99828.70;;;22.28;38.40
43683;BME280;29285;52.128;21.060;2023-04-23T12:14:33;99822.61;;;22.44;38.08
43683;BME280;29285;52.128;21.060;2023-04-23T12:19:34;99816.05;;;22.56;37.60
43683;BME280;29285;52.128;21.060;2023-04-23T12:24:47;99811.59;;;22.83;37.60
43683;BME280;29285;52.128;21.060;2023-04-23T12:30:00;99804.25;;;22.66;36.06
43683;BME280;29285;52.128;21.060;2023-04-23T12:35:02;99803.11;;;22.64;35.29
43683;BME280;29285;52.128;21.060;2023-04-23T12:40:06;99797.61;;;22.83;35.12
43683;BME280;29285;52.128;21.060;2023-04-23T12:45:08;99790.41;;;23.29;35.72
43683;BME280;29285;52.128;21.060;2023-04-23T12:50:10;99787.15;;;23.69;35.97
43683;BME280;29285;52.128;21.060;2023-04-23T12:55:12;99781.67;;;23.89;35.82
43683;BME280;29285;52.128;21.060;2023-04-23T13:00:13;99772.02;;;24.17;35.87
43683;BME280;29285;52.128;21.060;2023-04-23T13:05:14;99778.29;;;23.89;34.44
43683;BME280;29285;52.128;21.060;2023-04-23T13:10:15;99768.79;;;23.50;33.02
43683;BME280;29285;52.128;21.060;2023-04-23T13:15:17;99754.63;;;23.77;33.37
43683;BME280;29285;52.128;21.060;2023-04-23T13:20:18;99743.41;;;24.11;33.59
43683;BME280;29285;52.128;21.060;2023-04-23T13:25:19;99745.63;;;24.34;33.47
43683;BME280;29285;52.128;21.060;2023-04-23T13:30:20;99736.69;;;24.22;32.47
43683;BME280;29285;52.128;21.060;2023-04-23T13:35:22;99731.60;;;24.41;32.38
43683;BME280;29285;52.128;21.060;2023-04-23T13:40:24;99722.48;;;24.88;32.76
43683;BME280;29285;52.128;21.060;2023-04-23T13:45:25;99720.55;;;25.11;32.64
43683;BME280;29285;52.128;21.060;2023-04-23T13:50:27;99721.18;;;25.18;32.22
43683;BME280;29285;52.128;21.060;2023-04-23T13:55:44;99711.80;;;25.52;32.60
43683;BME280;29285;52.128;21.060;2023-04-23T14:00:45;99710.98;;;25.68;32.58
43683;BME280;29285;52.128;21.060;2023-04-23T14:05:46;99702.79;;;25.90;32.65
43683;BME280;29285;52.128;21.060;2023-04-23T14:10:47;99695.08;;;25.99;32.42
43683;BME280;29285;52.128;21.060;2023-04-23T14:15:49;99692.98;;;26.06;32.32
43683;BME280;29285;52.128;21.060;2023-04-23T14:20:50;99688.94;;;26.17;32.22
43683;BME280;29285;52.128;21.060;2023-04-23T14:25:56;99682.85;;;25.81;31.26
43683;BME280;29285;52.128;21.060;2023-04-23T14:30:59;99675.01;;;25.73;31.03
43683;BME280;29285;52.128;21.060;2023-04-23T14:36:01;99679.20;;;25.51;30.45
43683;BME280;29285;52.128;21.060;2023-04-23T14:41:02;99676.89;;;25.33;30.05
43683;BME280;29285;52.128;21.060;2023-04-23T14:46:03;99672.85;;;25.00;29.41
43683;BME280;29285;52.128;21.060;2023-04-23T14:51:04;99669.96;;;25.31;29.66
43683;BME280;29285;52.128;21.060;2023-04-23T14:56:06;99662.42;;;25.71;30.19
43683;BME280;29285;52.128;21.060;2023-04-23T15:01:07;99664.89;;;25.75;30.03
43683;BME280;29285;52.128;21.060;2023-04-23T15:06:08;99664.42;;;25.50;29.39
43683;BME280;29285;52.128;21.060;2023-04-23T15:11:11;99658.45;;;25.55;29.27
43683;BME280;29285;52.128;21.060;2023-04-23T15:16:34;99654.91;;;25.53;29.27
43683;BME280;29285;52.128;21.060;2023-04-23T15:21:36;99653.45;;;25.68;29.18
43683;BME280;29285;52.128;21.060;2023-04-23T15:26:38;99650.22;;;25.40;28.59
43683;BME280;29285;52.128;21.060;2023-04-23T15:31:39;99649.69;;;25.52;28.80
43683;BME280;29285;52.128;21.060;2023-04-23T15:36:41;99641.15;;;26.15;29.21
43683;BME280;29285;52.128;21.060;2023-04-23T15:41:42;99640.99;;;26.93;29.70
43683;BME280;29285;52.128;21.060;2023-04-23T15:46:43;99634.39;;;27.31;29.32
43683;BME280;29285;52.128;21.060;2023-04-23T15:51:45;99633.89;;;27.36;28.79
43683;BME280;29285;52.128;21.060;2023-04-23T15:56:46;99630.98;;;27.46;28.56
43683;BME280;29285;52.128;21.060;2023-04-23T16:01:47;99627.51;;;27.10;27.97
43683;BME280;29285;52.128;21.060;2023-04-23T16:06:49;99627.27;;;26.42;27.48
43683;BME280;29285;52.128;21.060;2023-04-23T16:11:51;99622.63;;;25.73;27.34
43683;BME280;29285;52.128;21.060;2023-04-23T16:16:55;99626.14;;;24.93;27.10
43683;BME280;29285;52.128;21.060;2023-04-23T16:21:57;99621.98;;;24.29;27.00
43683;BME280;29285;52.128;21.060;2023-04-23T16:26:58;99617.13;;;24.15;27.50
43683;BME280;29285;52.128;21.060;2023-04-23T16:31:59;99611.64;;;24.02;28.00
43683;BME280;29285;52.128;21.060;2023-04-23T16:37:00;99609.99;;;23.88;28.30
43683;BME280;29285;52.128;21.060;2023-04-23T16:42:01;99607.77;;;23.69;28.56
43683;BME280;29285;52.128;21.060;2023-04-23T16:47:03;99607.91;;;23.39;28.69
43683;BME280;29285;52.128;21.060;2023-04-23T16:52:04;99608.65;;;23.19;28.87
43683;BME280;29285;52.128;21.060;2023-04-23T16:57:05;99605.96;;;23.08;29.08
43683;BME280;29285;52.128;21.060;2023-04-23T17:02:07;99602.50;;;22.98;29.41
43683;BME280;29285;52.128;21.060;2023-04-23T17:07:08;99603.50;;;22.94;29.64
43683;BME280;29285;52.128;21.060;2023-04-23T17:12:09;99601.84;;;23.04;29.90
43683;BME280;29285;52.128;21.060;2023-04-23T17:17:11;99598.07;;;23.16;30.20
43683;BME280;29285;52.128;21.060;2023-04-23T17:22:12;99597.73;;;23.20;30.39
43683;BME280;29285;52.128;21.060;2023-04-23T17:27:13;99597.58;;;23.02;30.45
43683;BME280;29285;52.128;21.060;2023-04-23T17:32:14;99594.27;;;22.79;30.52
43683;BME280;29285;52.128;21.060;2023-04-23T17:37:15;99594.13;;;22.53;30.60
43683;BME280;29285;52.128;21.060;2023-04-23T17:42:16;99594.92;;;22.29;30.76
43683;BME280;29285;52.128;21.060;2023-04-23T17:47:17;99596.88;;;22.05;30.77
43683;BME280;29285;52.128;21.060;2023-04-23T17:52:18;99593.25;;;21.81;30.95
43683;BME280;29285;52.128;21.060;2023-04-23T17:57:19;99583.81;;;21.57;31.09
43683;BME280;29285;52.128;21.060;2023-04-23T18:02:21;99584.35;;;21.35;31.26
43683;BME280;29285;52.128;21.060;2023-04-23T18:07:22;99587.23;;;21.12;31.45
43683;BME280;29285;52.128;21.060;2023-04-23T18:12:23;99587.99;;;20.94;31.67
43683;BME280;29285;52.128;21.060;2023-04-23T18:17:24;99597.42;;;20.77;31.92
43683;BME280;29285;52.128;21.060;2023-04-23T18:22:25;99595.20;;;20.59;32.13
43683;BME280;29285;52.128;21.060;2023-04-23T18:27:26;99598.90;;;20.43;32.37
43683;BME280;29285;52.128;21.060;2023-04-23T18:32:27;99597.69;;;20.30;32.66
43683;BME280;29285;52.128;21.060;2023-04-23T18:37:36;99600.07;;;20.16;32.92
43683;BME280;29285;52.128;21.060;2023-04-23T18:42:37;99596.56;;;20.05;33.11
43683;BME280;29285;52.128;21.060;2023-04-23T18:47:48;99594.94;;;19.89;33.36
43683;BME280;29285;52.128;21.060;2023-04-23T18:52:50;99596.84;;;19.76;33.48
43683;BME280;29285;52.128;21.060;2023-04-23T18:57:51;99594.43;;;19.64;33.69
43683;BME280;29285;52.128;21.060;2023-04-23T19:02:52;99594.60;;;19.57;33.94
43683;BME280;29285;52.128;21.060;2023-04-23T19:07:53;99597.08;;;19.45;34.07
43683;BME280;29285;52.128;21.060;2023-04-23T19:12:55;99598.65;;;19.34;34.27
43683;BME280;29285;52.128;21.060;2023-04-23T19:17:56;99596.02;;;19.26;34.44
43683;BME280;29285;52.128;21.060;2023-04-23T19:22:58;99593.50;;;19.19;34.72
43683;BME280;29285;52.128;21.060;2023-04-23T19:28:00;99592.98;;;19.13;34.86
43683;BME280;29285;52.128;21.060;2023-04-23T19:33:01;99592.65;;;19.07;35.09
43683;BME280;29285;52.128;21.060;2023-04-23T19:38:02;99588.20;;;19.02;35.28
43683;BME280;29285;52.128;21.060;2023-04-23T19:43:03;99587.39;;;19.03;35.66
43683;BME280;29285;52.128;21.060;2023-04-23T19:48:04;99586.03;;;19.06;35.92
43683;BME280;29285;52.128;21.060;2023-04-23T19:53:07;99582.89;;;19.00;36.15
43683;BME280;29285;52.128;21.060;2023-04-23T19:58:08;99583.88;;;18.98;36.38
43683;BME280;29285;52.128;21.060;2023-04-23T20:03:09;99577.20;;;18.86;36.59
43683;BME280;29285;52.128;21.060;2023-04-23T20:08:10;99576.16;;;18.75;36.67
43683;BME280;29285;52.128;21.060;2023-04-23T20:13:15;99575.23;;;18.61;36.88
43683;BME280;29285;52.128;21.060;2023-04-23T20:18:17;99572.52;;;18.45;36.97
43683;BME280;29285;52.128;21.060;2023-04-23T20:23:18;99573.08;;;18.33;37.15
43683;BME280;29285;52.128;21.060;2023-04-23T20:28:20;99571.80;;;18.28;37.43
43683;BME280;29285;52.128;21.060;2023-04-23T20:33:21;99574.15;;;18.15;37.54
43683;BME280;29285;52.128;21.060;2023-04-23T20:38:22;99572.75;;;18.02;37.68
43683;BME280;29285;52.128;21.060;2023-04-23T20:43:24;99570.98;;;17.94;37.96
43683;BME280;29285;52.128;21.060;2023-04-23T20:48:27;99568.97;;;17.95;38.26
43683;BME280;29285;52.128;21.060;2023-04-23T20:53:29;99571.28;;;17.92;38.55
43683;BME280;29285;52.128;21.060;2023-04-23T20:58:30;99573.39;;;17.91;38.85
43683;BME280;29285;52.128;21.060;2023-04-23T21:03:32;99570.23;;;17.85;39.12
43683;BME280;29285;52.128;21.060;2023-04-23T21:08:37;99563.31;;;17.87;39.46
43683;BME280;29285;52.128;21.060;2023-04-23T21:13:47;99564.38;;;17.83;39.78
43683;BME280;29285;52.128;21.060;2023-04-23T21:18:48;99565.11;;;17.71;39.81
43683;BME280;29285;52.128;21.060;2023-04-23T21:23:49;99567.30;;;17.57;39.93
43683;BME280;29285;52.128;21.060;2023-04-23T21:28:50;99566.01;;;17.46;40.13
43683;BME280;29285;52.128;21.060;2023-04-23T21:33:51;99566.35;;;17.27;40.16
43683;BME280;29285;52.128;21.060;2023-04-23T21:38:52;99566.52;;;17.04;40.30
43683;BME280;29285;52.128;21.060;2023-04-23T21:43:53;99567.65;;;16.99;40.58
43683;BME280;29285;52.128;21.060;2023-04-23T21:48:54;99580.32;;;16.88;40.92
43683;BME280;29285;52.128;21.060;2023-04-23T21:53:56;99585.41;;;16.55;40.90
43683;BME280;29285;52.128;21.060;2023-04-23T21:58:57;99582.73;;;16.40;41.15
43683;BME280;29285;52.128;21.060;2023-04-23T22:03:58;99579.96;;;16.35;41.50
43683;BME280;29285;52.128;21.060;2023-04-23T22:09:00;99570.35;;;16.35;41.98
43683;BME280;29285;52.128;21.060;2023-04-23T22:14:01;99568.02;;;16.37;42.35
43683;BME280;29285;52.128;21.060;2023-04-23T22:19:02;99560.64;;;16.30;42.66
43683;BME280;29285;52.128;21.060;2023-04-23T22:24:04;99558.27;;;16.22;42.97
43683;BME280;29285;52.128;21.060;2023-04-23T22:29:07;99554.09;;;16.11;43.30
43683;BME280;29285;52.128;21.060;2023-04-23T22:34:08;99549.22;;;16.04;43.66
43683;BME280;29285;52.128;21.060;2023-04-23T22:39:09;99551.38;;;15.96;43.96
43683;BME280;29285;52.128;21.060;2023-04-23T22:44:11;99546.73;;;15.94;44.37
43683;BME280;29285;52.128;21.060;2023-04-23T22:49:12;99547.95;;;15.94;44.75
43683;BME280;29285;52.128;21.060;2023-04-23T22:54:15;99546.50;;;15.95;45.18
43683;BME280;29285;52.128;21.060;2023-04-23T22:59:16;99537.17;;;15.92;45.53
43683;BME280;29285;52.128;21.060;2023-04-23T23:04:17;99536.86;;;15.88;45.72
43683;BME280;29285;52.128;21.060;2023-04-23T23:09:19;99551.86;;;15.79;45.95
43683;BME280;29285;52.128;21.060;2023-04-23T23:14:20;99549.05;;;15.71;46.10
43683;BME280;29285;52.128;21.060;2023-04-23T23:19:21;99539.52;;;15.66;46.51
43683;BME280;29285;52.128;21.060;2023-04-23T23:24:22;99539.64;;;15.64;46.86
43683;BME280;29285;52.128;21.060;2023-04-23T23:29:24;99527.55;;;15.46;47.06
43683;BME280;29285;52.128;21.060;2023-04-23T23:34:25;99522.07;;;15.40;47.32
43683;BME280;29285;52.128;21.060;2023-04-23T23:39:26;99520.18;;;15.36;47.70
43683;BME280;29285;52.128;21.060;2023-04-23T23:44:28;99512.92;;;15.31;48.18
43683;BME280;29285;52.128;21.060;2023-04-23T23:49:29;99509.70;;;15.25;48.70
43683;BME280;29285;52.128;21.060;2023-04-23T23:54:31;99508.36;;;15.17;49.11
43683;BME280;29285;52.128;21.060;2023-04-23T23:59:32;99505.57;;;15.09;49.55
